Time;durP1;ratioP1;P1;durP2;ratioP2;P2;SDS_P1;SDS_P2;PMS_P1;PMS_P2;Temp;Humidity;BMP_temperature;BMP_pressure;BME280_temperature;BME280_humidity;BME280_pressure;Samples;Min_cycle;Max_cycle;Signal;HPM_P1;HPM_P2
2022/07/03 00:01:48;;;;;;;0.10;0.10;;;17.60;99.90;;;;;;5091660;28;20482;-83
2022/07/03 00:04:14;;;;;;;0.20;0.20;;;17.60;99.90;;;;;;5092201;28;20040;-83
2022/07/03 00:06:41;;;;;;;0.52;0.20;;;17.60;99.90;;;;;;5108682;28;20036;-83
2022/07/03 00:09:08;;;;;;;0.20;0.17;;;17.60;99.90;;;;;;5075144;28;20562;-83
2022/07/03 00:11:35;;;;;;;0.25;0.20;;;17.50;99.90;;;;;;5090647;28;20029;-84
2022/07/03 00:14:01;;;;;;;0.00;0.00;;;17.50;99.90;;;;;;5075301;28;20036;-84
2022/07/03 00:16:29;;;;;;;0.65;0.20;;;17.50;99.90;;;;;;5091689;28;20127;-84
2022/07/03 00:18:56;;;;;;;0.20;0.20;;;17.50;99.90;;;;;;5091637;28;20084;-83
2022/07/03 00:21:31;;;;;;;0.20;0.20;;;17.50;99.90;;;;;;5091711;28;20047;-84
2022/07/03 00:24:08;;;;;;;0.10;0.10;;;17.40;99.90;;;;;;5091754;28;20037;-84
2022/07/03 00:26:39;;;;;;;0.20;0.20;;;17.40;99.90;;;;;;5091540;28;20041;-83
2022/07/03 00:29:08;;;;;;;0.20;0.20;;;17.30;99.90;;;;;;5107894;28;20102;-84
2022/07/03 00:31:35;;;;;;;0.20;0.20;;;17.30;99.90;;;;;;5107892;28;20037;-84
2022/07/03 00:34:02;;;;;;;0.17;0.17;;;17.30;99.90;;;;;;5064474;28;20037;-83
2022/07/03 00:36:36;;;;;;;0.20;0.10;;;17.30;99.90;;;;;;5092843;28;20033;-83
2022/07/03 00:39:04;;;;;;;0.20;0.20;;;17.30;99.90;;;;;;5057993;28;20047;-84
2022/07/03 00:41:35;;;;;;;0.20;0.20;;;17.30;99.90;;;;;;5058037;28;20907;-83
2022/07/03 00:44:03;;;;;;;0.10;0.10;;;17.20;99.90;;;;;;5074307;28;20051;-83
2022/07/03 00:46:30;;;;;;;0.10;0.10;;;17.30;99.90;;;;;;5076339;28;20111;-83
2022/07/03 00:48:58;;;;;;;0.38;0.32;;;17.20;99.90;;;;;;5075511;28;20512;-83
2022/07/03 00:51:27;;;;;;;0.38;0.38;;;17.20;99.90;;;;;;5094472;28;20587;-83
2022/07/03 00:53:58;;;;;;;0.20;0.20;;;17.20;99.90;;;;;;5094683;28;20077;-84
2022/07/03 00:56:30;;;;;;;0.20;0.20;;;17.20;99.90;;;;;;5111467;28;20253;-83
2022/07/03 00:58:59;;;;;;;0.17;0.17;;;17.20;99.90;;;;;;5076935;28;20051;-83
2022/07/03 01:01:31;;;;;;;0.30;0.30;;;17.10;99.90;;;;;;5090664;28;20417;-83
2022/07/03 01:04:20;;;;;;;0.20;0.20;;;17.20;99.90;;;;;;5074314;28;20095;-83
2022/07/03 01:07:02;;;;;;;0.10;0.10;;;17.10;99.90;;;;;;5074399;28;20041;-83
2022/07/03 01:09:57;;;;;;;0.10;0.10;;;17.00;99.90;;;;;;5074350;28;20030;-84
2022/07/03 01:12:43;;;;;;;0.10;0.10;;;17.00;99.90;;;;;;5073893;28;20077;-83
2022/07/03 01:15:37;;;;;;;0.45;0.32;;;16.90;99.90;;;;;;5074071;28;20098;-83
2022/07/03 01:18:38;;;;;;;0.13;0.13;;;16.80;99.90;;;;;;5073913;28;20040;-83
2022/07/03 01:21:13;;;;;;;0.20;0.10;;;16.80;99.90;;;;;;5073909;28;20044;-83
2022/07/03 01:23:49;;;;;;;;;;;16.70;99.90;;;;;;5090382;28;20076;-83
2022/07/03 01:26:17;;;;;;;0.13;0.13;;;16.70;99.90;;;;;;5073377;28;19921;-83
2022/07/03 01:28:45;;;;;;;1.27;0.75;;;16.60;99.90;;;;;;5073466;28;20094;-84
2022/07/03 01:31:20;;;;;;;0.30;0.22;;;16.60;99.90;;;;;;5090184;28;20044;-83
2022/07/03 01:33:50;;;;;;;0.40;0.20;;;16.60;99.90;;;;;;5090317;28;20051;-83
2022/07/03 01:36:21;;;;;;;0.20;0.20;;;16.60;99.90;;;;;;5089696;28;20725;-83
2022/07/03 01:38:50;;;;;;;0.32;0.20;;;16.60;99.90;;;;;;5073497;28;20044;-83
2022/07/03 01:41:16;;;;;;;0.22;0.22;;;16.50;99.90;;;;;;5056549;28;20098;-83
2022/07/03 01:43:55;;;;;;;0.28;0.22;;;16.40;99.90;;;;;;5056955;28;20044;-84
2022/07/03 01:46:28;;;;;;;0.10;0.10;;;16.40;99.90;;;;;;5090023;28;20048;-83
2022/07/03 01:48:57;;;;;;;0.28;0.25;;;16.40;99.90;;;;;;5073642;28;20039;-83
2022/07/03 01:51:24;;;;;;;0.20;0.20;;;16.40;99.90;;;;;;5056712;28;20036;-83
2022/07/03 01:53:52;;;;;;;0.40;0.38;;;16.40;99.90;;;;;;5073395;28;20040;-83
2022/07/03 01:56:21;;;;;;;0.17;0.17;;;16.30;99.90;;;;;;5073479;28;20040;-83
2022/07/03 01:58:48;;;;;;;0.10;0.10;;;16.30;99.90;;;;;;5073412;28;20047;-83
2022/07/03 02:01:18;;;;;;;0.17;0.17;;;16.30;99.90;;;;;;5073306;28;20085;-83
2022/07/03 02:04:12;;;;;;;0.28;0.20;;;16.30;99.90;;;;;;5089901;28;20072;-83
2022/07/03 02:07:20;;;;;;;0.20;0.20;;;16.20;99.90;;;;;;5073100;28;20401;-84
2022/07/03 02:10:02;;;;;;;0.60;0.22;;;16.20;99.90;;;;;;5073310;28;20040;-83
2022/07/03 02:12:38;;;;;;;0.32;0.32;;;16.10;99.90;;;;;;5073152;28;20036;-83
2022/07/03 02:15:10;;;;;;;0.50;0.30;;;16.10;99.90;;;;;;5073079;28;20029;-83
2022/07/03 02:17:41;;;;;;;0.13;0.13;;;16.10;99.90;;;;;;5057007;28;20076;-83
2022/07/03 02:20:09;;;;;;;0.20;0.20;;;16.00;99.90;;;;;;5072952;28;20408;-83
2022/07/03 02:22:47;;;;;;;0.30;0.20;;;16.00;99.90;;;;;;5056416;28;20071;-83
2022/07/03 02:25:21;;;;;;;0.57;0.40;;;15.90;99.90;;;;;;5072597;28;20044;-83
2022/07/03 02:27:55;;;;;;;0.20;0.20;;;15.90;99.90;;;;;;5089514;28;20037;-83
2022/07/03 02:30:27;;;;;;;0.20;0.20;;;15.90;99.90;;;;;;5072934;28;20056;-83
2022/07/03 02:32:57;;;;;;;0.20;0.20;;;15.80;99.90;;;;;;5089965;28;20123;-83
2022/07/03 02:35:31;;;;;;;0.57;0.30;;;15.80;99.90;;;;;;5058218;28;20037;-83
2022/07/03 02:38:01;;;;;;;0.50;0.33;;;15.70;99.90;;;;;;5093694;28;20406;-83
2022/07/03 02:40:39;;;;;;;0.13;0.13;;;15.70;99.90;;;;;;5076789;28;20041;-83
2022/07/03 02:43:23;;;;;;;0.20;0.20;;;15.60;99.90;;;;;;5076796;28;20382;-83
2022/07/03 02:46:00;;;;;;;0.25;0.25;;;15.70;99.90;;;;;;5077184;28;20397;-83
2022/07/03 02:48:35;;;;;;;0.17;0.17;;;15.60;99.90;;;;;;5076616;28;20048;-83
2022/07/03 02:51:09;;;;;;;0.20;0.20;;;15.60;99.90;;;;;;5076805;28;20127;-83
2022/07/03 02:53:48;;;;;;;0.20;0.20;;;15.50;99.90;;;;;;5093217;28;20051;-83
2022/07/03 02:56:27;;;;;;;0.20;0.20;;;15.50;99.90;;;;;;5076449;28;20037;-84
2022/07/03 02:59:11;;;;;;;0.75;0.47;;;15.50;99.90;;;;;;5076461;28;20036;-83
2022/07/03 03:02:03;;;;;;;0.22;0.22;;;15.40;99.90;;;;;;5076380;28;20036;-84
2022/07/03 03:04:32;;;;;;;0.30;0.30;;;15.40;99.90;;;;;;5076074;28;20059;-83
2022/07/03 03:07:08;;;;;;;0.20;0.20;;;15.40;99.90;;;;;;5092695;28;20069;-84
2022/07/03 03:09:45;;;;;;;0.20;0.20;;;15.40;99.90;;;;;;5076439;28;20032;-83
2022/07/03 03:12:13;;;;;;;0.30;0.30;;;15.30;99.90;;;;;;5076177;28;20386;-83
2022/07/03 03:14:43;;;;;;;0.35;0.25;;;15.30;99.90;;;;;;5076008;28;20044;-83
2022/07/03 03:17:36;;;;;;;0.20;0.20;;;15.30;99.90;;;;;;5075645;28;20045;-83
2022/07/03 03:20:03;;;;;;;0.25;0.25;;;15.30;99.90;;;;;;5065666;28;20509;-83
2022/07/03 03:22:55;;;;;;;0.20;0.20;;;15.20;99.90;;;;;;5075971;28;20036;-83
2022/07/03 03:25:21;;;;;;;0.70;0.38;;;15.20;99.90;;;;;;5075928;28;20076;-83
2022/07/03 03:27:48;;;;;;;0.30;0.22;;;15.10;99.90;;;;;;5059445;28;20520;-83
2022/07/03 03:30:15;;;;;;;0.40;0.30;;;15.20;99.90;;;;;;5042597;28;20083;-83
2022/07/03 03:32:42;;;;;;;0.13;0.13;;;15.20;99.90;;;;;;5059509;28;20123;-83
2022/07/03 03:35:10;;;;;;;0.20;0.20;;;15.10;99.90;;;;;;5075669;28;20036;-83
2022/07/03 03:37:37;;;;;;;0.20;0.20;;;15.10;99.90;;;;;;5091776;28;20501;-83
2022/07/03 03:40:05;;;;;;;0.45;0.35;;;15.10;99.90;;;;;;5059177;28;20046;-83
2022/07/03 03:42:31;;;;;;;0.20;0.20;;;15.10;99.90;;;;;;5075480;28;20067;-83
2022/07/03 03:44:58;;;;;;;0.10;0.10;;;15.20;99.90;;;;;;5042870;28;20045;-83
2022/07/03 03:47:25;;;;;;;0.45;0.28;;;15.20;99.90;;;;;;5074977;28;20045;-83
2022/07/03 03:49:52;;;;;;;0.20;0.20;;;15.20;99.90;;;;;;5042709;28;20490;-83
2022/07/03 03:52:18;;;;;;;0.30;0.30;;;15.20;99.90;;;;;;5075643;28;20041;-83
2022/07/03 03:54:45;;;;;;;0.43;0.25;;;15.20;99.90;;;;;;5058935;28;20201;-83
2022/07/03 03:57:22;;;;;;;0.32;0.28;;;15.30;99.90;;;;;;5075265;28;20040;-83
2022/07/03 03:59:50;;;;;;;0.10;0.10;;;15.30;99.90;;;;;;5075587;28;20036;-83
2022/07/03 04:02:17;;;;;;;0.73;0.40;;;15.30;99.90;;;;;;5075061;28;20075;-83
2022/07/03 04:04:44;;;;;;;0.30;0.20;;;15.30;99.90;;;;;;5059195;28;20127;-83
2022/07/03 04:07:11;;;;;;;0.20;0.20;;;15.40;99.90;;;;;;5075577;28;20043;-83
2022/07/03 04:09:38;;;;;;;0.20;0.20;;;15.40;99.90;;;;;;5042434;28;20485;-83
2022/07/03 04:12:06;;;;;;;0.55;0.40;;;15.40;99.90;;;;;;5059173;28;20044;-83
2022/07/03 04:14:32;;;;;;;0.25;0.20;;;15.50;99.90;;;;;;5074959;28;20051;-83
2022/07/03 04:16:59;;;;;;;0.40;0.40;;;15.50;99.90;;;;;;5075082;28;20044;-83
2022/07/03 04:19:26;;;;;;;0.40;0.30;;;15.60;99.90;;;;;;5042037;28;20055;-83
2022/07/03 04:21:52;;;;;;;0.45;0.30;;;15.60;99.90;;;;;;5058400;28;20047;-83
2022/07/03 04:24:19;;;;;;;0.30;0.30;;;15.60;99.90;;;;;;5041834;28;20037;-83
2022/07/03 04:26:46;;;;;;;0.40;0.40;;;15.60;99.90;;;;;;5058175;28;20052;-83
2022/07/03 04:29:13;;;;;;;0.75;0.40;;;15.60;99.90;;;;;;5074764;28;20056;-83
2022/07/03 04:31:40;;;;;;;0.68;0.40;;;15.60;99.90;;;;;;5041956;28;20513;-83
2022/07/03 04:34:07;;;;;;;0.63;0.40;;;15.60;99.90;;;;;;5091415;28;20129;-83
2022/07/03 04:36:34;;;;;;;0.50;0.43;;;15.60;99.90;;;;;;5041382;28;20429;-83
2022/07/03 04:39:01;;;;;;;0.25;0.25;;;15.60;99.90;;;;;;5057724;28;20043;-83
2022/07/03 04:41:27;;;;;;;0.60;0.30;;;15.60;99.90;;;;;;5074497;28;20047;-83
2022/07/03 04:43:54;;;;;;;0.30;0.30;;;15.70;99.90;;;;;;5041819;28;20043;-83
2022/07/03 04:46:21;;;;;;;0.30;0.25;;;15.70;99.90;;;;;;5041760;28;20124;-84
2022/07/03 04:48:48;;;;;;;0.75;0.50;;;15.70;99.90;;;;;;5074364;28;20545;-84
2022/07/03 04:51:14;;;;;;;0.47;0.40;;;15.70;99.90;;;;;;5041737;28;20186;-83
2022/07/03 04:53:41;;;;;;;0.68;0.60;;;15.70;99.90;;;;;;5041379;28;20155;-84
2022/07/03 04:56:08;;;;;;;0.80;0.45;;;15.60;99.90;;;;;;5090957;28;20043;-83
2022/07/03 04:58:34;;;;;;;0.30;0.30;;;15.60;99.90;;;;;;5040726;28;20131;-83
2022/07/03 05:01:01;;;;;;;0.70;0.57;;;15.60;99.90;;;;;;5041582;28;20048;-83
2022/07/03 05:03:28;;;;;;;0.32;0.32;;;15.60;99.90;;;;;;5041338;28;20058;-83
2022/07/03 05:05:54;;;;;;;0.52;0.40;;;15.60;99.90;;;;;;5057515;28;20704;-84
2022/07/03 05:08:21;;;;;;;0.35;0.35;;;15.60;99.90;;;;;;5057726;28;20041;-84
2022/07/03 05:10:48;;;;;;;0.30;0.30;;;15.60;99.90;;;;;;5073602;28;20449;-83
2022/07/03 05:13:14;;;;;;;0.55;0.30;;;15.60;99.90;;;;;;5057824;28;20037;-83
2022/07/03 05:15:41;;;;;;;0.52;0.40;;;15.60;99.90;;;;;;5057628;28;20435;-83
2022/07/03 05:18:08;;;;;;;0.43;0.43;;;15.60;99.90;;;;;;5073851;28;20595;-83
2022/07/03 05:20:35;;;;;;;0.20;0.20;;;15.60;99.90;;;;;;5056842;28;20040;-84
2022/07/03 05:23:02;;;;;;;0.30;0.30;;;15.60;99.90;;;;;;5090391;28;20045;-83
2022/07/03 05:25:30;;;;;;;0.55;0.40;;;15.60;99.90;;;;;;5073893;28;20040;-83
2022/07/03 05:27:58;;;;;;;0.35;0.35;;;15.60;99.90;;;;;;5090051;28;20056;-83
2022/07/03 05:30:26;;;;;;;0.20;0.20;;;15.60;99.90;;;;;;5073527;28;20056;-83
2022/07/03 05:32:53;;;;;;;0.15;0.15;;;15.60;99.90;;;;;;5090189;28;20040;-84
2022/07/03 05:35:20;;;;;;;0.38;0.32;;;15.70;99.90;;;;;;5073571;28;20093;-83
2022/07/03 05:37:47;;;;;;;0.55;0.28;;;15.70;99.90;;;;;;5057288;28;20048;-83
2022/07/03 05:40:14;;;;;;;0.20;0.20;;;15.70;99.90;;;;;;5057195;28;20090;-84
2022/07/03 05:42:41;;;;;;;0.50;0.50;;;15.70;99.90;;;;;;5041048;28;20086;-83
2022/07/03 05:45:09;;;;;;;0.57;0.30;;;15.80;99.90;;;;;;5057093;28;20500;-84
2022/07/03 05:47:36;;;;;;;0.40;0.40;;;15.80;99.90;;;;;;5072790;28;20834;-83
2022/07/03 05:50:03;;;;;;;0.32;0.17;;;15.90;99.90;;;;;;5056724;28;20040;-83
2022/07/03 05:52:29;;;;;;;0.25;0.25;;;16.00;99.90;;;;;;5056819;28;20047;-84
2022/07/03 05:54:56;;;;;;;0.45;0.32;;;16.00;99.90;;;;;;5040536;28;20036;-83
2022/07/03 05:57:23;;;;;;;0.30;0.22;;;16.20;99.90;;;;;;5040732;28;20136;-83
2022/07/03 05:59:50;;;;;;;0.45;0.30;;;16.30;99.90;;;;;;5056691;28;20844;-83
2022/07/03 06:02:17;;;;;;;0.50;0.40;;;16.40;99.90;;;;;;5056791;28;20032;-83
2022/07/03 06:04:43;;;;;;;0.20;0.20;;;16.70;99.90;;;;;;5056950;28;20037;-83
2022/07/03 06:07:10;;;;;;;0.77;0.43;;;16.90;99.90;;;;;;5040219;28;20090;-84
2022/07/03 06:09:37;;;;;;;2.38;0.60;;;17.10;99.90;;;;;;5056669;28;20068;-83
2022/07/03 06:12:04;;;;;;;0.20;0.20;;;17.30;99.90;;;;;;5040312;28;20066;-84
2022/07/03 06:14:31;;;;;;;0.20;0.20;;;17.50;99.90;;;;;;5089812;28;20039;-83
2022/07/03 06:16:57;;;;;;;0.50;0.50;;;17.70;99.90;;;;;;5073271;28;20036;-84
2022/07/03 06:19:24;;;;;;;0.20;0.20;;;17.90;99.90;;;;;;5056653;28;20409;-83
2022/07/03 06:21:51;;;;;;;0.57;0.28;;;18.20;99.90;;;;;;5072633;28;20071;-84
2022/07/03 06:24:17;;;;;;;0.32;0.20;;;18.40;99.90;;;;;;5072946;28;20036;-84
2022/07/03 06:26:44;;;;;;;1.70;0.73;;;18.50;99.90;;;;;;5040282;28;20044;-83
2022/07/03 06:29:11;;;;;;;0.40;0.25;;;18.60;99.90;;;;;;5040462;28;20071;-85
2022/07/03 06:31:37;;;;;;;0.57;0.38;;;18.70;99.90;;;;;;5056502;28;20489;-84
2022/07/03 06:34:04;;;;;;;2.08;0.45;;;18.80;99.90;;;;;;5051643;28;20097;-84
2022/07/03 06:36:31;;;;;;;0.98;0.68;;;18.90;99.90;;;;;;5093304;28;20043;-84
2022/07/03 06:38:57;;;;;;;0.20;0.20;;;18.90;99.90;;;;;;5109720;28;20518;-85
2022/07/03 06:41:24;;;;;;;0.35;0.30;;;18.90;99.90;;;;;;5093332;28;20413;-86
2022/07/03 06:43:51;;;;;;;0.63;0.30;;;18.90;99.90;;;;;;5109702;28;20783;-87
2022/07/03 06:46:18;;;;;;;0.10;0.10;;;18.90;99.90;;;;;;5110151;28;20040;-86
2022/07/03 06:48:44;;;;;;;0.43;0.28;;;19.00;99.90;;;;;;5089788;28;20115;-86
2022/07/03 06:51:11;;;;;;;0.47;0.40;;;19.00;99.90;;;;;;5060267;28;20032;-86
2022/07/03 06:53:38;;;;;;;0.30;0.30;;;19.00;99.90;;;;;;5087434;28;20037;-86
2022/07/03 06:56:04;;;;;;;0.15;0.15;;;19.00;99.90;;;;;;5040527;28;20032;-87
2022/07/03 06:58:31;;;;;;;0.60;0.30;;;19.10;99.90;;;;;;5073231;28;20053;-87
2022/07/03 07:00:58;;;;;;;0.20;0.17;;;19.20;99.90;;;;;;5073324;28;20040;-86
2022/07/03 07:03:24;;;;;;;0.20;0.20;;;19.40;99.90;;;;;;5056510;28;20040;-86
2022/07/03 07:05:51;;;;;;;0.20;0.20;;;19.40;99.90;;;;;;5056336;28;20041;-86
2022/07/03 07:08:18;;;;;;;0.20;0.20;;;19.60;99.90;;;;;;5056494;28;20093;-87
2022/07/03 07:10:44;;;;;;;0.20;0.20;;;19.60;99.90;;;;;;5056360;28;20036;-85
2022/07/03 07:13:11;;;;;;;0.15;0.15;;;19.60;99.90;;;;;;5072800;28;20076;-86
2022/07/03 07:15:38;;;;;;;1.45;0.30;;;19.70;99.90;;;;;;5039679;28;20032;-86
2022/07/03 07:18:04;;;;;;;0.25;0.13;;;19.90;99.90;;;;;;5055881;28;20072;-87
2022/07/03 07:20:31;;;;;;;0.35;0.25;;;19.90;99.90;;;;;;5057601;28;20032;-85
2022/07/03 07:22:58;;;;;;;0.30;0.20;;;20.20;99.90;;;;;;5059478;28;20127;-86
2022/07/03 07:25:24;;;;;;;0.10;0.10;;;20.30;99.90;;;;;;5105990;28;20044;-87
2022/07/03 07:27:51;;;;;;;0.10;0.10;;;20.40;99.90;;;;;;5085121;28;20527;-85
2022/07/03 07:30:18;;;;;;;0.30;0.30;;;20.50;99.90;;;;;;5078605;28;20052;-86
2022/07/03 07:32:45;;;;;;;0.13;0.13;;;20.60;99.90;;;;;;5095653;28;20044;-85
2022/07/03 07:35:12;;;;;;;0.10;0.10;;;20.60;99.90;;;;;;5076356;28;20102;-84
2022/07/03 07:37:39;;;;;;;0.20;0.20;;;20.60;99.90;;;;;;5075530;28;20416;-84
2022/07/03 07:40:07;;;;;;;0.20;0.20;;;20.40;99.90;;;;;;5038154;28;20077;-85
2022/07/03 07:42:33;;;;;;;0.10;0.10;;;20.40;99.90;;;;;;5075623;28;20067;-84
2022/07/03 07:45:00;;;;;;;0.10;0.10;;;20.40;99.90;;;;;;5072150;28;20524;-85
2022/07/03 07:47:27;;;;;;;0.17;0.17;;;20.50;99.90;;;;;;5080578;28;20056;-86
2022/07/03 07:49:53;;;;;;;0.57;0.30;;;20.60;99.90;;;;;;5058875;28;20033;-85
2022/07/03 07:52:22;;;;;;;0.20;0.20;;;20.70;99.90;;;;;;5058877;28;20070;-86
2022/07/03 07:54:49;;;;;;;0.65;0.20;;;20.70;99.90;;;;;;5043059;28;20037;-86
2022/07/03 07:57:16;;;;;;;0.30;0.10;;;20.80;99.90;;;;;;5059234;28;20048;-86
2022/07/03 07:59:42;;;;;;;0.10;0.10;;;20.80;99.90;;;;;;5092089;28;20036;-86
2022/07/03 08:07:39;;;;;;;0.38;0.15;;;20.80;99.90;;;;;;5097412;28;20527;-89
2022/07/03 08:10:06;;;;;;;0.47;0.25;;;20.90;99.90;;;;;;5075628;28;20071;-85
2022/07/03 08:12:33;;;;;;;0.10;0.10;;;20.90;99.90;;;;;;5059210;28;20048;-88
2022/07/03 08:15:00;;;;;;;0.22;0.13;;;20.90;99.90;;;;;;5075550;28;20035;-87
2022/07/03 08:17:26;;;;;;;0.00;0.00;;;20.90;99.90;;;;;;5074851;28;20528;-86
2022/07/03 08:19:53;;;;;;;0.20;0.20;;;20.90;99.90;;;;;;5041645;28;20047;-84
2022/07/03 08:22:20;;;;;;;0.20;0.20;;;21.00;99.90;;;;;;5068608;28;20057;-83
2022/07/03 08:24:46;;;;;;;0.20;0.20;;;21.10;99.90;;;;;;5099652;28;20048;-83
2022/07/03 08:27:13;;;;;;;0.15;0.13;;;21.20;99.90;;;;;;5042027;28;20063;-83
2022/07/03 08:29:40;;;;;;;0.20;0.20;;;21.30;99.90;;;;;;5054770;28;20137;-83
2022/07/03 08:32:07;;;;;;;0.32;0.20;;;21.40;99.90;;;;;;5050201;28;20041;-83
2022/07/03 08:34:33;;;;;;;0.47;0.22;;;21.60;99.90;;;;;;5067530;28;20044;-83
2022/07/03 08:37:00;;;;;;;0.35;0.28;;;21.80;99.90;;;;;;5044309;28;20409;-84
2022/07/03 08:39:27;;;;;;;0.20;0.20;;;22.00;99.90;;;;;;5071103;28;20528;-85
2022/07/03 08:41:55;;;;;;;0.43;0.30;;;21.90;99.90;;;;;;5070814;28;20043;-85
2022/07/03 08:44:24;;;;;;;0.28;0.20;;;21.80;99.90;;;;;;5052701;28;20086;-83
2022/07/03 08:46:51;;;;;;;0.30;0.15;;;21.70;99.90;;;;;;5086990;28;20120;-83
2022/07/03 08:49:19;;;;;;;0.20;0.20;;;21.70;99.90;;;;;;5061560;28;20037;-83
2022/07/03 08:51:46;;;;;;;0.22;0.20;;;21.60;99.90;;;;;;5054276;28;20072;-84
2022/07/03 08:54:13;;;;;;;0.10;0.10;;;21.60;99.90;;;;;;5070723;28;20037;-84
2022/07/03 08:56:41;;;;;;;0.20;0.20;;;21.50;99.90;;;;;;5054502;28;20041;-84
2022/07/03 08:59:08;;;;;;;0.20;0.20;;;21.50;99.90;;;;;;5082281;28;20449;-84
2022/07/03 09:01:41;;;;;;;0.20;0.20;;;21.60;99.90;;;;;;5054639;28;20032;-84
2022/07/03 09:04:14;;;;;;;0.22;0.20;;;21.80;99.90;;;;;;5093709;28;20116;-84
2022/07/03 09:06:43;;;;;;;0.70;0.30;;;22.00;99.90;;;;;;5098809;28;20043;-83
2022/07/03 09:09:09;;;;;;;0.30;0.30;;;22.10;99.90;;;;;;5105981;28;20087;-84
2022/07/03 09:11:38;;;;;;;0.10;0.10;;;22.00;99.90;;;;;;5078844;28;20072;-84
2022/07/03 09:14:06;;;;;;;0.10;0.10;;;21.80;99.90;;;;;;5103603;28;20044;-84
2022/07/03 09:16:36;;;;;;;0.22;0.20;;;21.70;99.90;;;;;;5069933;28;20037;-84
2022/07/03 09:19:06;;;;;;;0.20;0.20;;;21.90;99.90;;;;;;5085231;28;20063;-84
2022/07/03 09:21:37;;;;;;;0.38;0.30;;;21.90;99.90;;;;;;5032657;28;20068;-84
2022/07/03 09:24:07;;;;;;;0.20;0.20;;;22.10;99.90;;;;;;5103299;28;20040;-83
2022/07/03 09:26:34;;;;;;;0.32;0.30;;;22.20;99.90;;;;;;5069658;28;20051;-83
2022/07/03 09:29:02;;;;;;;0.15;0.15;;;22.10;99.90;;;;;;5060793;28;20044;-85
2022/07/03 09:31:30;;;;;;;0.17;0.17;;;22.30;99.90;;;;;;5072521;28;20048;-84
2022/07/03 09:33:58;;;;;;;0.38;0.20;;;22.20;99.90;;;;;;5106562;28;20078;-83
2022/07/03 09:36:40;;;;;;;0.20;0.20;;;22.20;99.90;;;;;;5081006;28;20058;-84
2022/07/03 09:39:30;;;;;;;0.38;0.25;;;22.30;99.90;;;;;;5073089;28;20119;-84
2022/07/03 09:42:09;;;;;;;0.20;0.20;;;22.50;99.90;;;;;;5057631;28;20500;-84
2022/07/03 09:44:40;;;;;;;1.08;0.38;;;22.40;99.90;;;;;;5073515;28;20036;-84
2022/07/03 09:47:15;;;;;;;0.73;0.32;;;22.50;99.90;;;;;;5081377;28;20071;-84
2022/07/03 09:49:55;;;;;;;;;;;22.60;99.90;;;;;;5061703;28;20024;-83
2022/07/03 09:52:36;;;;;;;0.20;0.20;;;22.60;99.90;;;;;;5079835;28;19916;-84
2022/07/03 09:55:08;;;;;;;0.47;0.30;;;22.60;99.90;;;;;;5078371;28;20040;-84
2022/07/03 09:57:51;;;;;;;1.27;0.40;;;22.50;99.90;;;;;;5086083;28;20054;-84
2022/07/03 10:00:23;;;;;;;0.20;0.20;;;22.50;99.90;;;;;;5088837;28;20505;-84
2022/07/03 10:03:04;;;;;;;0.20;0.17;;;22.50;99.90;;;;;;5090274;28;20043;-85
2022/07/03 10:05:36;;;;;;;0.17;0.17;;;22.50;99.90;;;;;;5089501;28;20044;-85
2022/07/03 10:08:05;;;;;;;0.13;0.13;;;22.60;99.90;;;;;;5088072;28;20090;-85
2022/07/03 10:10:34;;;;;;;0.43;0.20;;;22.70;99.90;;;;;;5088334;28;20029;-88
2022/07/03 10:13:02;;;;;;;0.22;0.22;;;22.70;99.90;;;;;;5064403;28;20040;-86
2022/07/03 10:15:30;;;;;;;0.15;0.15;;;22.90;99.90;;;;;;5073152;28;20040;-85
2022/07/03 10:17:59;;;;;;;0.20;0.20;;;23.10;99.90;;;;;;5106239;28;20047;-85
2022/07/03 10:20:35;;;;;;;0.35;0.20;;;23.20;99.90;;;;;;5105569;28;20041;-82
2022/07/03 10:23:03;;;;;;;0.22;0.22;;;23.40;99.90;;;;;;5073543;28;20407;-85
2022/07/03 10:25:33;;;;;;;0.10;0.10;;;23.60;99.90;;;;;;5100432;28;20089;-86
2022/07/03 10:28:01;;;;;;;0.40;0.30;;;23.70;99.90;;;;;;5088918;28;20102;-82
2022/07/03 10:30:28;;;;;;;0.28;0.22;;;23.60;99.90;;;;;;5085157;28;20049;-83
2022/07/03 10:32:56;;;;;;;0.13;0.13;;;23.80;99.90;;;;;;5101862;28;20489;-82
2022/07/03 10:35:38;;;;;;;0.57;0.20;;;23.70;99.90;;;;;;5130864;28;20052;-87
2022/07/03 10:38:10;;;;;;;0.28;0.20;;;23.90;99.90;;;;;;5069164;28;20041;-85
2022/07/03 10:46:29;;;;;;;0.22;0.22;;;23.80;99.90;;;;;;5085738;28;20076;-85
2022/07/03 10:49:06;;;;;;;0.20;0.20;;;23.70;99.90;;;;;;5068640;28;20045;-85
2022/07/03 10:51:59;;;;;;;0.10;0.08;;;23.50;99.90;;;;;;5068705;28;20513;-85
2022/07/03 10:54:48;;;;;;;0.10;0.10;;;23.70;99.90;;;;;;5064560;28;20068;-85
2022/07/03 10:57:17;;;;;;;0.10;0.10;;;24.10;99.90;;;;;;5075535;28;20045;-85
2022/07/03 10:59:44;;;;;;;0.10;0.10;;;24.30;99.90;;;;;;5087214;28;20628;-85
2022/07/03 11:02:37;;;;;;;0.20;0.20;;;24.30;99.90;;;;;;5068010;28;20120;-84
2022/07/03 11:05:06;;;;;;;0.10;0.10;;;24.50;99.90;;;;;;5064831;28;20091;-85
2022/07/03 11:07:38;;;;;;;0.00;0.00;;;24.40;99.90;;;;;;5072299;28;20033;-84
2022/07/03 11:10:14;;;;;;;0.20;0.20;;;24.20;99.70;;;;;;5072008;28;20033;-85
2022/07/03 11:13:15;;;;;;;0.20;0.20;;;24.20;99.90;;;;;;5073172;28;20045;-85
2022/07/03 11:15:47;;;;;;;0.20;0.20;;;24.20;99.60;;;;;;5072981;28;20486;-84
2022/07/03 11:18:19;;;;;;;0.20;0.20;;;24.40;98.90;;;;;;5072428;28;20098;-85
2022/07/03 11:20:51;;;;;;;0.00;0.00;;;24.60;99.90;;;;;;5072177;28;20080;-85
2022/07/03 11:23:27;;;;;;;0.45;0.30;;;24.90;99.90;;;;;;5072572;28;20044;-85
2022/07/03 11:25:59;;;;;;;0.08;0.08;;;24.90;99.10;;;;;;5081016;28;20048;-84
2022/07/03 11:28:32;;;;;;;0.10;0.10;;;24.50;97.00;;;;;;5072544;28;20509;-85
2022/07/03 11:31:10;;;;;;;0.98;0.10;;;24.30;98.70;;;;;;5079530;28;20110;-87
2022/07/03 11:33:43;;;;;;;0.10;0.10;;;24.30;98.20;;;;;;5083190;28;20059;-84
2022/07/03 11:36:31;;;;;;;0.00;0.00;;;24.40;98.30;;;;;;5059213;28;20043;-86
2022/07/03 11:38:57;;;;;;;0.10;0.10;;;24.50;97.60;;;;;;5108614;28;20060;-86
2022/07/03 11:41:29;;;;;;;0.10;0.10;;;24.50;95.80;;;;;;5092364;28;20033;-84
2022/07/03 11:44:04;;;;;;;0.13;0.13;;;24.70;98.70;;;;;;5075636;28;20044;-84
2022/07/03 11:46:34;;;;;;;0.10;0.10;;;24.80;97.30;;;;;;5061515;28;20158;-87
2022/07/03 11:49:07;;;;;;;0.20;0.10;;;24.70;96.30;;;;;;5075241;28;20105;-88
2022/07/03 11:51:35;;;;;;;0.10;0.10;;;24.70;97.10;;;;;;5061634;28;20032;-87
2022/07/03 11:54:03;;;;;;;0.10;0.10;;;24.90;96.80;;;;;;5058512;28;20568;-85
2022/07/03 11:56:31;;;;;;;0.17;0.17;;;25.10;97.60;;;;;;5075682;28;20123;-87
2022/07/03 11:58:59;;;;;;;0.10;0.10;;;25.20;96.60;;;;;;5075818;28;20047;-85
2022/07/03 12:01:26;;;;;;;0.05;0.05;;;25.40;96.90;;;;;;5075442;28;20044;-87
2022/07/03 12:04:27;;;;;;;0.10;0.10;;;25.50;95.40;;;;;;5125695;28;20047;-86
2022/07/03 12:06:57;;;;;;;0.10;0.10;;;25.40;93.80;;;;;;5055620;28;20047;-86
2022/07/03 12:09:29;;;;;;;0.52;0.30;;;25.50;94.50;;;;;;5073443;28;20036;-86
2022/07/03 12:11:57;;;;;;;0.17;0.17;;;25.30;94.70;;;;;;5075037;28;20036;-86
2022/07/03 12:14:39;;;;;;;0.20;0.20;;;25.10;94.90;;;;;;5075087;28;20045;-86
2022/07/03 12:17:08;;;;;;;0.60;0.20;;;25.10;98.10;;;;;;5075454;28;20409;-86
2022/07/03 12:19:35;;;;;;;0.20;0.10;;;24.90;95.90;;;;;;5055463;28;20043;-86
2022/07/03 12:22:02;;;;;;;0.00;0.00;;;25.00;96.60;;;;;;5042152;28;20520;-85
2022/07/03 12:24:33;;;;;;;0.10;0.10;;;25.00;95.10;;;;;;5091282;28;20127;-86
2022/07/03 12:27:03;;;;;;;0.08;0.08;;;25.20;96.30;;;;;;5075969;28;20048;-86
2022/07/03 12:29:30;;;;;;;0.22;0.22;;;25.10;94.30;;;;;;5076684;28;20517;-85
2022/07/03 12:31:57;;;;;;;0.28;0.20;;;25.20;96.90;;;;;;5042589;28;20059;-86
2022/07/03 12:34:24;;;;;;;0.35;0.20;;;25.30;94.90;;;;;;5074305;28;20039;-85
2022/07/03 12:36:55;;;;;;;0.10;0.10;;;25.30;95.80;;;;;;5083741;28;20517;-84
2022/07/03 12:39:22;;;;;;;0.10;0.10;;;25.30;95.50;;;;;;5087231;28;20040;-85
2022/07/03 12:41:49;;;;;;;0.15;0.15;;;25.30;94.50;;;;;;5070755;28;20505;-83
2022/07/03 12:44:20;;;;;;;0.10;0.10;;;25.40;95.40;;;;;;5070514;28;20040;-84
2022/07/03 12:46:48;;;;;;;0.40;0.20;;;25.30;95.00;;;;;;5074483;28;20040;-83
2022/07/03 12:49:15;;;;;;;0.20;0.13;;;25.20;93.90;;;;;;5041616;28;20037;-82
2022/07/03 12:51:49;;;;;;;0.17;0.17;;;25.40;95.20;;;;;;5054314;28;20069;-84
2022/07/03 12:54:23;;;;;;;0.10;0.10;;;25.50;94.90;;;;;;5074560;28;20032;-82
2022/07/03 13:00:11;;;;;;;0.15;0.15;;;25.40;94.30;;;;;;5065510;28;20051;-82
2022/07/03 13:02:41;;;;;;;0.10;0.10;;;25.30;93.50;;;;;;5074209;28;20040;-85
2022/07/03 13:05:17;;;;;;;0.35;0.20;;;25.10;93.80;;;;;;5070812;28;20049;-84
2022/07/03 13:07:50;;;;;;;0.20;0.20;;;25.10;94.30;;;;;;5057496;28;20068;-84
2022/07/03 13:10:18;;;;;;;0.10;0.10;;;25.10;94.00;;;;;;5074154;28;20425;-84
2022/07/03 13:12:59;;;;;;;0.10;0.10;;;25.20;94.00;;;;;;5057792;28;20059;-84
2022/07/03 13:15:27;;;;;;;0.10;0.10;;;25.40;93.80;;;;;;5073961;28;20075;-84
2022/07/03 13:17:54;;;;;;;0.10;0.10;;;25.20;94.40;;;;;;5090107;28;20040;-84
2022/07/03 13:20:26;;;;;;;0.20;0.20;;;25.30;95.00;;;;;;5073503;28;20047;-84